sensor_id;sensor_type;location;lat;lon;timestamp;temperature;humidity
27306;DHT22;14792;50.886;6.468;2022-12-01T00:01:29;6.20;99.90
27306;DHT22;14792;50.886;6.468;2022-12-01T00:04:31;6.20;99.90
27306;DHT22;14792;50.886;6.468;2022-12-01T00:07:33;6.20;99.90
27306;DHT22;14792;50.886;6.468;2022-12-01T00:10:34;6.20;99.90
27306;DHT22;14792;50.886;6.468;2022-12-01T00:13:36;6.20;99.90
27306;DHT22;14792;50.886;6.468;2022-12-01T00:16:37;6.20;99.90
27306;DHT22;14792;50.886;6.468;2022-12-01T00:19:39;6.20;99.90
27306;DHT22;14792;50.886;6.468;2022-12-01T00:22:47;6.20;99.90
27306;DHT22;14792;50.886;6.468;2022-12-01T00:25:48;6.20;99.90
27306;DHT22;14792;50.886;6.468;2022-12-01T00:28:51;6.20;99.90
27306;DHT22;14792;50.886;6.468;2022-12-01T00:31:52;6.20;99.90
27306;DHT22;14792;50.886;6.468;2022-12-01T00:34:53;6.20;99.90
27306;DHT22;14792;50.886;6.468;2022-12-01T00:37:55;6.10;99.90
27306;DHT22;14792;50.886;6.468;2022-12-01T00:40:56;6.20;99.90
27306;DHT22;14792;50.886;6.468;2022-12-01T00:43:58;6.20;99.90
27306;DHT22;14792;50.886;6.468;2022-12-01T00:47:00;6.10;99.90
27306;DHT22;14792;50.886;6.468;2022-12-01T00:50:02;6.10;99.90
27306;DHT22;14792;50.886;6.468;2022-12-01T00:53:03;6.10;99.90
27306;DHT22;14792;50.886;6.468;2022-12-01T00:56:04;6.10;99.90
27306;DHT22;14792;50.886;6.468;2022-12-01T00:59:06;6.10;99.90
27306;DHT22;14792;50.886;6.468;2022-12-01T01:02:08;6.20;99.90
27306;DHT22;14792;50.886;6.468;2022-12-01T01:05:09;6.20;99.90
27306;DHT22;14792;50.886;6.468;2022-12-01T01:08:11;6.20;99.90
27306;DHT22;14792;50.886;6.468;2022-12-01T01:11:12;6.20;99.90
27306;DHT22;14792;50.886;6.468;2022-12-01T01:14:14;6.20;99.90
27306;DHT22;14792;50.886;6.468;2022-12-01T01:17:16;6.20;99.90
27306;DHT22;14792;50.886;6.468;2022-12-01T01:20:17;6.20;99.90
27306;DHT22;14792;50.886;6.468;2022-12-01T01:23:19;6.20;99.90
27306;DHT22;14792;50.886;6.468;2022-12-01T01:26:21;6.20;99.90
27306;DHT22;14792;50.886;6.468;2022-12-01T01:29:22;6.20;99.90
27306;DHT22;14792;50.886;6.468;2022-12-01T01:32:24;6.20;99.90
27306;DHT22;14792;50.886;6.468;2022-12-01T01:35:25;6.20;99.90
27306;DHT22;14792;50.886;6.468;2022-12-01T01:38:27;6.10;99.90
27306;DHT22;14792;50.886;6.468;2022-12-01T01:41:28;6.10;99.90
27306;DHT22;14792;50.886;6.468;2022-12-01T01:44:46;6.10;99.90
27306;DHT22;14792;50.886;6.468;2022-12-01T01:47:47;6.10;99.90
27306;DHT22;14792;50.886;6.468;2022-12-01T01:50:49;6.10;99.90
27306;DHT22;14792;50.886;6.468;2022-12-01T01:53:52;6.20;99.90
27306;DHT22;14792;50.886;6.468;2022-12-01T01:56:53;6.20;99.90
27306;DHT22;14792;50.886;6.468;2022-12-01T02:00:00;6.20;99.90
27306;DHT22;14792;50.886;6.468;2022-12-01T02:02:56;6.20;99.90
27306;DHT22;14792;50.886;6.468;2022-12-01T02:05:58;6.20;99.90
27306;DHT22;14792;50.886;6.468;2022-12-01T02:08:59;6.20;99.90
27306;DHT22;14792;50.886;6.468;2022-12-01T02:22:08;6.10;99.90
27306;DHT22;14792;50.886;6.468;2022-12-01T02:25:27;6.10;99.90
27306;DHT22;14792;50.886;6.468;2022-12-01T02:28:49;6.10;99.90
27306;DHT22;14792;50.886;6.468;2022-12-01T02:31:57;6.10;99.90
27306;DHT22;14792;50.886;6.468;2022-12-01T02:35:07;6.10;99.90
27306;DHT22;14792;50.886;6.468;2022-12-01T02:38:34;6.10;99.90
27306;DHT22;14792;50.886;6.468;2022-12-01T02:41:44;6.10;99.90
27306;DHT22;14792;50.886;6.468;2022-12-01T02:44:42;6.20;99.90
27306;DHT22;14792;50.886;6.468;2022-12-01T02:47:43;6.00;99.90
27306;DHT22;14792;50.886;6.468;2022-12-01T02:50:44;6.00;99.90
27306;DHT22;14792;50.886;6.468;2022-12-01T02:53:46;6.00;99.90
27306;DHT22;14792;50.886;6.468;2022-12-01T02:56:50;6.10;99.90
27306;DHT22;14792;50.886;6.468;2022-12-01T02:59:51;6.00;99.90
27306;DHT22;14792;50.886;6.468;2022-12-01T03:06:43;6.00;99.90
27306;DHT22;14792;50.886;6.468;2022-12-01T03:09:07;6.00;99.90
27306;DHT22;14792;50.886;6.468;2022-12-01T03:12:09;6.00;99.90
27306;DHT22;14792;50.886;6.468;2022-12-01T03:21:34;6.00;99.90
27306;DHT22;14792;50.886;6.468;2022-12-01T03:24:34;6.00;99.90
27306;DHT22;14792;50.886;6.468;2022-12-01T03:27:36;6.00;99.90
27306;DHT22;14792;50.886;6.468;2022-12-01T03:30:37;6.00;99.90
27306;DHT22;14792;50.886;6.468;2022-12-01T03:33:40;5.90;99.90
27306;DHT22;14792;50.886;6.468;2022-12-01T03:36:41;6.00;99.90
27306;DHT22;14792;50.886;6.468;2022-12-01T03:39:42;6.00;99.90
27306;DHT22;14792;50.886;6.468;2022-12-01T03:42:53;5.90;99.90
27306;DHT22;14792;50.886;6.468;2022-12-01T03:46:30;5.90;99.90
27306;DHT22;14792;50.886;6.468;2022-12-01T03:49:13;5.90;99.90
27306;DHT22;14792;50.886;6.468;2022-12-01T03:55:40;5.90;99.90
27306;DHT22;14792;50.886;6.468;2022-12-01T03:58:43;5.90;99.90
27306;DHT22;14792;50.886;6.468;2022-12-01T04:01:43;5.90;99.90
27306;DHT22;14792;50.886;6.468;2022-12-01T04:04:45;5.90;99.90
27306;DHT22;14792;50.886;6.468;2022-12-01T04:07:46;5.90;99.90
27306;DHT22;14792;50.886;6.468;2022-12-01T04:10:48;5.90;99.90
27306;DHT22;14792;50.886;6.468;2022-12-01T04:13:50;5.90;99.90
27306;DHT22;14792;50.886;6.468;2022-12-01T04:16:51;6.00;99.90
27306;DHT22;14792;50.886;6.468;2022-12-01T04:19:53;5.90;99.90
27306;DHT22;14792;50.886;6.468;2022-12-01T04:22:55;6.00;99.90
27306;DHT22;14792;50.886;6.468;2022-12-01T04:26:00;6.00;99.90
27306;DHT22;14792;50.886;6.468;2022-12-01T04:29:02;6.00;99.90
27306;DHT22;14792;50.886;6.468;2022-12-01T04:32:02;6.00;99.90
27306;DHT22;14792;50.886;6.468;2022-12-01T04:35:04;5.90;99.90
27306;DHT22;14792;50.886;6.468;2022-12-01T04:38:05;5.90;99.90
27306;DHT22;14792;50.886;6.468;2022-12-01T04:41:11;5.90;99.90
27306;DHT22;14792;50.886;6.468;2022-12-01T04:44:11;6.00;99.90
27306;DHT22;14792;50.886;6.468;2022-12-01T04:47:13;6.00;99.90
27306;DHT22;14792;50.886;6.468;2022-12-01T04:50:15;6.00;99.90
27306;DHT22;14792;50.886;6.468;2022-12-01T04:53:16;6.00;99.90
27306;DHT22;14792;50.886;6.468;2022-12-01T04:56:18;5.90;99.90
27306;DHT22;14792;50.886;6.468;2022-12-01T04:59:21;5.90;99.90
27306;DHT22;14792;50.886;6.468;2022-12-01T05:02:22;6.00;99.90
27306;DHT22;14792;50.886;6.468;2022-12-01T05:05:24;5.90;99.90
27306;DHT22;14792;50.886;6.468;2022-12-01T05:08:25;5.90;99.90
27306;DHT22;14792;50.886;6.468;2022-12-01T05:11:27;5.90;99.90
27306;DHT22;14792;50.886;6.468;2022-12-01T05:14:29;5.90;99.90
27306;DHT22;14792;50.886;6.468;2022-12-01T05:17:30;5.90;99.90
27306;DHT22;14792;50.886;6.468;2022-12-01T05:20:32;5.90;99.90
27306;DHT22;14792;50.886;6.468;2022-12-01T05:23:52;5.90;99.90
27306;DHT22;14792;50.886;6.468;2022-12-01T05:26:53;5.90;99.90
27306;DHT22;14792;50.886;6.468;2022-12-01T05:29:55;5.80;99.90
27306;DHT22;14792;50.886;6.468;2022-12-01T05:32:57;5.80;99.90
27306;DHT22;14792;50.886;6.468;2022-12-01T05:35:58;5.90;99.90
27306;DHT22;14792;50.886;6.468;2022-12-01T05:39:00;5.90;99.90
27306;DHT22;14792;50.886;6.468;2022-12-01T05:42:01;5.90;99.90
27306;DHT22;14792;50.886;6.468;2022-12-01T05:45:03;5.90;99.90
27306;DHT22;14792;50.886;6.468;2022-12-01T05:48:05;5.90;99.90
27306;DHT22;14792;50.886;6.468;2022-12-01T05:51:09;5.80;99.90
27306;DHT22;14792;50.886;6.468;2022-12-01T05:54:10;5.80;99.90
27306;DHT22;14792;50.886;6.468;2022-12-01T05:57:12;5.80;99.90
27306;DHT22;14792;50.886;6.468;2022-12-01T06:00:14;5.80;99.90
27306;DHT22;14792;50.886;6.468;2022-12-01T06:03:15;5.80;99.90
27306;DHT22;14792;50.886;6.468;2022-12-01T06:06:17;5.80;99.90
27306;DHT22;14792;50.886;6.468;2022-12-01T06:09:20;5.80;99.90
27306;DHT22;14792;50.886;6.468;2022-12-01T06:12:22;5.60;99.90
27306;DHT22;14792;50.886;6.468;2022-12-01T06:15:24;5.80;99.90
27306;DHT22;14792;50.886;6.468;2022-12-01T06:18:26;5.80;99.90
27306;DHT22;14792;50.886;6.468;2022-12-01T06:21:27;5.80;99.90
27306;DHT22;14792;50.886;6.468;2022-12-01T06:24:29;5.80;99.90
27306;DHT22;14792;50.886;6.468;2022-12-01T06:27:30;5.80;99.90
27306;DHT22;14792;50.886;6.468;2022-12-01T06:30:32;5.80;99.90
27306;DHT22;14792;50.886;6.468;2022-12-01T06:33:34;5.80;99.90
27306;DHT22;14792;50.886;6.468;2022-12-01T06:36:35;5.80;99.90
27306;DHT22;14792;50.886;6.468;2022-12-01T06:39:37;5.80;99.90
27306;DHT22;14792;50.886;6.468;2022-12-01T06:42:38;5.80;99.90
27306;DHT22;14792;50.886;6.468;2022-12-01T06:45:40;5.80;99.90
27306;DHT22;14792;50.886;6.468;2022-12-01T06:48:42;5.80;99.90
27306;DHT22;14792;50.886;6.468;2022-12-01T06:51:43;5.80;99.90
27306;DHT22;14792;50.886;6.468;2022-12-01T06:54:45;5.70;99.90
27306;DHT22;14792;50.886;6.468;2022-12-01T06:57:46;5.70;99.90
27306;DHT22;14792;50.886;6.468;2022-12-01T07:00:49;5.70;99.90
27306;DHT22;14792;50.886;6.468;2022-12-01T07:03:50;5.70;99.90
27306;DHT22;14792;50.886;6.468;2022-12-01T07:06:52;5.70;99.90
27306;DHT22;14792;50.886;6.468;2022-12-01T07:09:54;5.70;99.90
27306;DHT22;14792;50.886;6.468;2022-12-01T07:12:55;5.70;99.90
27306;DHT22;14792;50.886;6.468;2022-12-01T07:15:57;5.70;99.90
27306;DHT22;14792;50.886;6.468;2022-12-01T07:18:58;5.70;99.90
27306;DHT22;14792;50.886;6.468;2022-12-01T07:22:00;5.70;99.90
27306;DHT22;14792;50.886;6.468;2022-12-01T07:25:01;5.70;99.90
27306;DHT22;14792;50.886;6.468;2022-12-01T07:28:03;5.80;99.90
27306;DHT22;14792;50.886;6.468;2022-12-01T07:31:06;5.80;99.90
27306;DHT22;14792;50.886;6.468;2022-12-01T07:34:09;5.80;99.90
27306;DHT22;14792;50.886;6.468;2022-12-01T07:37:08;5.80;99.90
27306;DHT22;14792;50.886;6.468;2022-12-01T07:40:11;5.80;99.90
27306;DHT22;14792;50.886;6.468;2022-12-01T07:43:12;5.80;99.90
27306;DHT22;14792;50.886;6.468;2022-12-01T07:46:15;5.90;99.90
27306;DHT22;14792;50.886;6.468;2022-12-01T07:49:16;5.90;99.90
27306;DHT22;14792;50.886;6.468;2022-12-01T07:52:17;5.90;99.90
27306;DHT22;14792;50.886;6.468;2022-12-01T07:55:22;5.90;99.90
27306;DHT22;14792;50.886;6.468;2022-12-01T07:58:24;5.90;99.90
27306;DHT22;14792;50.886;6.468;2022-12-01T08:01:25;5.90;99.90
27306;DHT22;14792;50.886;6.468;2022-12-01T08:04:27;5.90;99.90
27306;DHT22;14792;50.886;6.468;2022-12-01T08:07:28;5.90;99.90
27306;DHT22;14792;50.886;6.468;2022-12-01T08:10:30;5.90;99.90
27306;DHT22;14792;50.886;6.468;2022-12-01T08:13:32;6.00;99.90
27306;DHT22;14792;50.886;6.468;2022-12-01T08:16:33;6.00;99.90
27306;DHT22;14792;50.886;6.468;2022-12-01T08:19:35;5.90;99.90
27306;DHT22;14792;50.886;6.468;2022-12-01T08:22:36;5.90;99.90
27306;DHT22;14792;50.886;6.468;2022-12-01T08:25:38;6.00;99.90
27306;DHT22;14792;50.886;6.468;2022-12-01T08:28:40;5.90;99.90
27306;DHT22;14792;50.886;6.468;2022-12-01T08:31:41;5.90;99.90
27306;DHT22;14792;50.886;6.468;2022-12-01T08:34:43;5.90;99.90
27306;DHT22;14792;50.886;6.468;2022-12-01T08:37:44;6.00;99.90
27306;DHT22;14792;50.886;6.468;2022-12-01T08:40:46;6.00;99.90
27306;DHT22;14792;50.886;6.468;2022-12-01T08:43:47;6.00;99.90
27306;DHT22;14792;50.886;6.468;2022-12-01T08:46:49;6.00;99.90
27306;DHT22;14792;50.886;6.468;2022-12-01T08:49:52;6.00;99.90
27306;DHT22;14792;50.886;6.468;2022-12-01T08:52:54;6.00;99.90
27306;DHT22;14792;50.886;6.468;2022-12-01T08:55:59;6.10;99.90
27306;DHT22;14792;50.886;6.468;2022-12-01T08:58:57;6.20;99.90
27306;DHT22;14792;50.886;6.468;2022-12-01T09:01:59;6.20;99.90
27306;DHT22;14792;50.886;6.468;2022-12-01T09:05:00;6.20;99.90
27306;DHT22;14792;50.886;6.468;2022-12-01T09:08:02;6.30;99.90
27306;DHT22;14792;50.886;6.468;2022-12-01T09:11:21;6.40;99.90
27306;DHT22;14792;50.886;6.468;2022-12-01T09:14:23;6.60;99.90
27306;DHT22;14792;50.886;6.468;2022-12-01T09:17:24;6.80;99.90
27306;DHT22;14792;50.886;6.468;2022-12-01T09:20:26;6.60;99.90
27306;DHT22;14792;50.886;6.468;2022-12-01T09:23:28;6.70;99.90
27306;DHT22;14792;50.886;6.468;2022-12-01T09:26:29;6.70;99.90
27306;DHT22;14792;50.886;6.468;2022-12-01T09:29:31;6.60;99.90
27306;DHT22;14792;50.886;6.468;2022-12-01T09:32:32;6.80;99.90
27306;DHT22;14792;50.886;6.468;2022-12-01T09:35:34;6.70;99.90
27306;DHT22;14792;50.886;6.468;2022-12-01T09:38:36;6.60;99.90
27306;DHT22;14792;50.886;6.468;2022-12-01T09:41:45;6.60;99.90
27306;DHT22;14792;50.886;6.468;2022-12-01T09:44:46;6.60;99.90
27306;DHT22;14792;50.886;6.468;2022-12-01T09:47:46;6.70;99.90
27306;DHT22;14792;50.886;6.468;2022-12-01T09:50:47;6.60;99.90
27306;DHT22;14792;50.886;6.468;2022-12-01T09:53:53;6.60;99.90
27306;DHT22;14792;50.886;6.468;2022-12-01T09:56:54;6.50;99.90
27306;DHT22;14792;50.886;6.468;2022-12-01T09:59:56;6.60;99.90
27306;DHT22;14792;50.886;6.468;2022-12-01T10:03:44;6.60;99.90
27306;DHT22;14792;50.886;6.468;2022-12-01T10:06:03;6.60;99.90
27306;DHT22;14792;50.886;6.468;2022-12-01T10:09:18;6.50;99.90
27306;DHT22;14792;50.886;6.468;2022-12-01T10:12:14;6.50;99.90
27306;DHT22;14792;50.886;6.468;2022-12-01T10:15:20;6.50;99.90
27306;DHT22;14792;50.886;6.468;2022-12-01T10:24:53;6.50;99.90
27306;DHT22;14792;50.886;6.468;2022-12-01T10:34:16;6.30;99.90
27306;DHT22;14792;50.886;6.468;2022-12-01T10:37:24;6.40;99.90
27306;DHT22;14792;50.886;6.468;2022-12-01T10:40:25;6.40;99.90
27306;DHT22;14792;50.886;6.468;2022-12-01T10:44:12;6.50;99.90
27306;DHT22;14792;50.886;6.468;2022-12-01T10:46:42;6.50;99.90
27306;DHT22;14792;50.886;6.468;2022-12-01T10:49:41;6.40;99.90
27306;DHT22;14792;50.886;6.468;2022-12-01T10:52:42;6.50;99.90
27306;DHT22;14792;50.886;6.468;2022-12-01T10:55:44;6.50;99.90
27306;DHT22;14792;50.886;6.468;2022-12-01T10:58:52;6.50;99.90
27306;DHT22;14792;50.886;6.468;2022-12-01T11:01:53;6.50;99.90
27306;DHT22;14792;50.886;6.468;2022-12-01T11:04:58;6.50;99.90
27306;DHT22;14792;50.886;6.468;2022-12-01T11:07:59;6.50;99.90
27306;DHT22;14792;50.886;6.468;2022-12-01T11:11:00;6.50;99.90
27306;DHT22;14792;50.886;6.468;2022-12-01T11:14:05;6.50;99.90
27306;DHT22;14792;50.886;6.468;2022-12-01T11:17:27;6.40;99.90
27306;DHT22;14792;50.886;6.468;2022-12-01T11:20:39;6.40;99.90
27306;DHT22;14792;50.886;6.468;2022-12-01T11:23:44;6.40;99.90
27306;DHT22;14792;50.886;6.468;2022-12-01T11:26:45;6.50;99.90
27306;DHT22;14792;50.886;6.468;2022-12-01T11:29:53;6.40;99.90
27306;DHT22;14792;50.886;6.468;2022-12-01T11:32:52;6.40;99.90
27306;DHT22;14792;50.886;6.468;2022-12-01T11:35:53;6.50;99.90
27306;DHT22;14792;50.886;6.468;2022-12-01T11:38:57;6.50;99.90
27306;DHT22;14792;50.886;6.468;2022-12-01T11:42:02;6.50;99.90
27306;DHT22;14792;50.886;6.468;2022-12-01T11:45:28;6.50;99.90
27306;DHT22;14792;50.886;6.468;2022-12-01T11:48:22;6.40;99.90
27306;DHT22;14792;50.886;6.468;2022-12-01T11:51:29;6.40;99.90
27306;DHT22;14792;50.886;6.468;2022-12-01T11:54:27;6.40;99.90
27306;DHT22;14792;50.886;6.468;2022-12-01T11:57:29;6.40;99.90
27306;DHT22;14792;50.886;6.468;2022-12-01T12:00:44;6.50;99.90
27306;DHT22;14792;50.886;6.468;2022-12-01T12:03:37;6.50;99.90
27306;DHT22;14792;50.886;6.468;2022-12-01T12:16:45;6.50;99.90
27306;DHT22;14792;50.886;6.468;2022-12-01T12:19:50;6.40;99.90
27306;DHT22;14792;50.886;6.468;2022-12-01T12:22:57;6.40;99.90
27306;DHT22;14792;50.886;6.468;2022-12-01T12:29:33;6.50;99.90
27306;DHT22;14792;50.886;6.468;2022-12-01T12:32:49;6.40;99.90
27306;DHT22;14792;50.886;6.468;2022-12-01T12:39:36;6.40;99.90
27306;DHT22;14792;50.886;6.468;2022-12-01T12:52:05;6.30;99.90
27306;DHT22;14792;50.886;6.468;2022-12-01T12:55:22;6.30;99.90
27306;DHT22;14792;50.886;6.468;2022-12-01T12:58:38;6.30;99.90
27306;DHT22;14792;50.886;6.468;2022-12-01T13:01:40;6.30;99.90
27306;DHT22;14792;50.886;6.468;2022-12-01T13:04:54;6.30;99.90
27306;DHT22;14792;50.886;6.468;2022-12-01T13:08:07;6.20;99.90
27306;DHT22;14792;50.886;6.468;2022-12-01T13:11:13;6.20;99.90
27306;DHT22;14792;50.886;6.468;2022-12-01T13:14:28;6.20;99.90
27306;DHT22;14792;50.886;6.468;2022-12-01T13:17:36;6.10;99.90
27306;DHT22;14792;50.886;6.468;2022-12-01T13:20:34;6.10;99.90
27306;DHT22;14792;50.886;6.468;2022-12-01T13:23:36;6.10;99.90
27306;DHT22;14792;50.886;6.468;2022-12-01T13:26:37;6.10;99.90
27306;DHT22;14792;50.886;6.468;2022-12-01T13:29:43;6.10;99.90
27306;DHT22;14792;50.886;6.468;2022-12-01T13:32:40;6.10;99.90
27306;DHT22;14792;50.886;6.468;2022-12-01T13:35:42;6.10;99.90
27306;DHT22;14792;50.886;6.468;2022-12-01T13:38:50;6.10;99.90
27306;DHT22;14792;50.886;6.468;2022-12-01T13:41:45;6.10;99.90
27306;DHT22;14792;50.886;6.468;2022-12-01T13:44:56;6.10;99.90
27306;DHT22;14792;50.886;6.468;2022-12-01T13:47:54;6.10;99.90
27306;DHT22;14792;50.886;6.468;2022-12-01T13:50:56;6.20;99.90
27306;DHT22;14792;50.886;6.468;2022-12-01T13:54:04;6.10;99.90
27306;DHT22;14792;50.886;6.468;2022-12-01T13:57:10;6.30;99.90
27306;DHT22;14792;50.886;6.468;2022-12-01T14:00:23;6.20;99.90
27306;DHT22;14792;50.886;6.468;2022-12-01T14:03:30;6.20;99.90
27306;DHT22;14792;50.886;6.468;2022-12-01T14:06:35;6.20;99.90
27306;DHT22;14792;50.886;6.468;2022-12-01T14:09:38;6.20;99.90
27306;DHT22;14792;50.886;6.468;2022-12-01T14:12:39;6.20;99.90
27306;DHT22;14792;50.886;6.468;2022-12-01T14:15:40;6.20;99.90
27306;DHT22;14792;50.886;6.468;2022-12-01T14:18:47;6.20;99.90
27306;DHT22;14792;50.886;6.468;2022-12-01T14:21:46;6.20;99.90
27306;DHT22;14792;50.886;6.468;2022-12-01T14:24:50;6.20;99.90
27306;DHT22;14792;50.886;6.468;2022-12-01T14:27:53;6.20;99.90
27306;DHT22;14792;50.886;6.468;2022-12-01T14:33:53;6.20;99.90
27306;DHT22;14792;50.886;6.468;2022-12-01T14:37:17;6.10;99.90
27306;DHT22;14792;50.886;6.468;2022-12-01T14:40:18;6.10;99.90
27306;DHT22;14792;50.886;6.468;2022-12-01T14:43:19;6.20;99.90
27306;DHT22;14792;50.886;6.468;2022-12-01T14:46:47;6.20;99.90
27306;DHT22;14792;50.886;6.468;2022-12-01T14:50:03;6.20;99.90
27306;DHT22;14792;50.886;6.468;2022-12-01T14:56:17;6.10;99.90
27306;DHT22;14792;50.886;6.468;2022-12-01T14:59:21;6.10;99.90
27306;DHT22;14792;50.886;6.468;2022-12-01T15:02:22;6.10;99.90
27306;DHT22;14792;50.886;6.468;2022-12-01T15:05:25;6.10;99.90
27306;DHT22;14792;50.886;6.468;2022-12-01T15:08:27;6.10;99.90
27306;DHT22;14792;50.886;6.468;2022-12-01T15:11:27;6.10;99.90
27306;DHT22;14792;50.886;6.468;2022-12-01T15:14:33;6.10;99.90
27306;DHT22;14792;50.886;6.468;2022-12-01T15:17:33;6.10;99.90
27306;DHT22;14792;50.886;6.468;2022-12-01T15:20:37;6.10;99.90
27306;DHT22;14792;50.886;6.468;2022-12-01T15:23:36;6.00;99.90
27306;DHT22;14792;50.886;6.468;2022-12-01T15:26:44;6.10;99.90
27306;DHT22;14792;50.886;6.468;2022-12-01T15:29:41;6.00;99.90
27306;DHT22;14792;50.886;6.468;2022-12-01T15:32:41;6.10;99.90
27306;DHT22;14792;50.886;6.468;2022-12-01T15:35:43;6.10;99.90
27306;DHT22;14792;50.886;6.468;2022-12-01T15:38:45;6.10;99.90
27306;DHT22;14792;50.886;6.468;2022-12-01T15:41:46;6.10;99.90
27306;DHT22;14792;50.886;6.468;2022-12-01T15:47:50;6.10;99.90
27306;DHT22;14792;50.886;6.468;2022-12-01T15:50:58;6.10;99.90
27306;DHT22;14792;50.886;6.468;2022-12-01T15:53:58;6.10;99.90
27306;DHT22;14792;50.886;6.468;2022-12-01T15:57:00;6.00;99.90
27306;DHT22;14792;50.886;6.468;2022-12-01T16:00:02;6.00;99.90
27306;DHT22;14792;50.886;6.468;2022-12-01T16:03:03;5.90;99.90
27306;DHT22;14792;50.886;6.468;2022-12-01T16:06:07;5.90;99.90
27306;DHT22;14792;50.886;6.468;2022-12-01T16:09:30;5.90;99.90
27306;DHT22;14792;50.886;6.468;2022-12-01T16:15:13;5.90;99.90
27306;DHT22;14792;50.886;6.468;2022-12-01T16:18:33;5.90;99.90
27306;DHT22;14792;50.886;6.468;2022-12-01T16:21:25;5.90;99.90
27306;DHT22;14792;50.886;6.468;2022-12-01T16:24:36;5.90;99.90
27306;DHT22;14792;50.886;6.468;2022-12-01T16:27:34;5.90;99.90
27306;DHT22;14792;50.886;6.468;2022-12-01T16:30:36;5.90;99.90
27306;DHT22;14792;50.886;6.468;2022-12-01T16:33:37;5.90;99.90
27306;DHT22;14792;50.886;6.468;2022-12-01T16:36:39;5.80;99.90
27306;DHT22;14792;50.886;6.468;2022-12-01T16:39:40;5.90;99.90
27306;DHT22;14792;50.886;6.468;2022-12-01T16:42:42;5.90;99.90
27306;DHT22;14792;50.886;6.468;2022-12-01T16:45:44;5.90;99.90
27306;DHT22;14792;50.886;6.468;2022-12-01T16:48:45;5.90;99.90
27306;DHT22;14792;50.886;6.468;2022-12-01T16:51:47;5.90;99.90
27306;DHT22;14792;50.886;6.468;2022-12-01T16:54:48;5.90;99.90
27306;DHT22;14792;50.886;6.468;2022-12-01T16:57:54;5.90;99.90
27306;DHT22;14792;50.886;6.468;2022-12-01T17:00:56;5.90;99.90
27306;DHT22;14792;50.886;6.468;2022-12-01T17:03:57;5.90;99.90
27306;DHT22;14792;50.886;6.468;2022-12-01T17:06:59;5.90;99.90
27306;DHT22;14792;50.886;6.468;2022-12-01T17:10:00;5.90;99.90
27306;DHT22;14792;50.886;6.468;2022-12-01T17:13:02;5.90;99.90
27306;DHT22;14792;50.886;6.468;2022-12-01T17:16:04;6.00;99.90
27306;DHT22;14792;50.886;6.468;2022-12-01T17:19:05;6.00;99.90
27306;DHT22;14792;50.886;6.468;2022-12-01T17:22:07;5.90;99.90
27306;DHT22;14792;50.886;6.468;2022-12-01T17:25:08;5.90;99.90
27306;DHT22;14792;50.886;6.468;2022-12-01T17:28:10;5.80;99.90
27306;DHT22;14792;50.886;6.468;2022-12-01T17:31:12;5.80;99.90
27306;DHT22;14792;50.886;6.468;2022-12-01T17:34:13;5.80;99.90
27306;DHT22;14792;50.886;6.468;2022-12-01T17:37:15;5.80;99.90
27306;DHT22;14792;50.886;6.468;2022-12-01T17:40:16;5.70;99.90
27306;DHT22;14792;50.886;6.468;2022-12-01T17:43:18;5.80;99.90
27306;DHT22;14792;50.886;6.468;2022-12-01T17:46:20;5.70;99.90
27306;DHT22;14792;50.886;6.468;2022-12-01T17:49:22;5.70;99.90
27306;DHT22;14792;50.886;6.468;2022-12-01T17:52:23;5.70;99.90
27306;DHT22;14792;50.886;6.468;2022-12-01T17:55:25;5.70;99.90
27306;DHT22;14792;50.886;6.468;2022-12-01T17:58:26;5.70;99.90
27306;DHT22;14792;50.886;6.468;2022-12-01T18:01:28;5.70;99.90
27306;DHT22;14792;50.886;6.468;2022-12-01T18:04:29;5.70;99.90
27306;DHT22;14792;50.886;6.468;2022-12-01T18:07:31;5.70;99.90
27306;DHT22;14792;50.886;6.468;2022-12-01T18:10:32;5.60;99.90
27306;DHT22;14792;50.886;6.468;2022-12-01T18:13:38;5.60;99.90
27306;DHT22;14792;50.886;6.468;2022-12-01T18:16:38;5.70;99.90
27306;DHT22;14792;50.886;6.468;2022-12-01T18:19:40;5.60;99.90
27306;DHT22;14792;50.886;6.468;2022-12-01T18:22:42;5.60;99.90
27306;DHT22;14792;50.886;6.468;2022-12-01T18:25:43;5.60;99.90
27306;DHT22;14792;50.886;6.468;2022-12-01T18:28:45;5.60;99.90
27306;DHT22;14792;50.886;6.468;2022-12-01T18:31:46;5.60;99.90
27306;DHT22;14792;50.886;6.468;2022-12-01T18:34:48;5.50;99.90
27306;DHT22;14792;50.886;6.468;2022-12-01T18:37:50;5.50;99.90
27306;DHT22;14792;50.886;6.468;2022-12-01T18:40:54;5.50;99.90
27306;DHT22;14792;50.886;6.468;2022-12-01T18:43:53;5.50;99.90
27306;DHT22;14792;50.886;6.468;2022-12-01T18:46:54;5.50;99.90
27306;DHT22;14792;50.886;6.468;2022-12-01T18:49:56;5.50;99.90
27306;DHT22;14792;50.886;6.468;2022-12-01T18:52:58;5.50;99.90
27306;DHT22;14792;50.886;6.468;2022-12-01T18:56:03;5.50;99.90
27306;DHT22;14792;50.886;6.468;2022-12-01T18:59:04;5.50;99.90
27306;DHT22;14792;50.886;6.468;2022-12-01T19:02:05;5.50;99.90
27306;DHT22;14792;50.886;6.468;2022-12-01T19:05:07;5.50;99.90
27306;DHT22;14792;50.886;6.468;2022-12-01T19:08:08;5.50;99.90
27306;DHT22;14792;50.886;6.468;2022-12-01T19:11:10;5.50;99.90
27306;DHT22;14792;50.886;6.468;2022-12-01T19:14:12;5.50;99.90
27306;DHT22;14792;50.886;6.468;2022-12-01T19:17:13;5.40;99.90
27306;DHT22;14792;50.886;6.468;2022-12-01T19:20:15;5.40;99.90
27306;DHT22;14792;50.886;6.468;2022-12-01T19:23:16;5.40;99.90
27306;DHT22;14792;50.886;6.468;2022-12-01T19:26:18;5.40;99.90
27306;DHT22;14792;50.886;6.468;2022-12-01T19:29:19;5.40;99.90
27306;DHT22;14792;50.886;6.468;2022-12-01T19:32:21;5.40;99.90
27306;DHT22;14792;50.886;6.468;2022-12-01T19:35:23;5.40;99.90
27306;DHT22;14792;50.886;6.468;2022-12-01T19:38:24;5.40;99.90
27306;DHT22;14792;50.886;6.468;2022-12-01T19:41:26;5.40;99.90
27306;DHT22;14792;50.886;6.468;2022-12-01T19:44:27;5.40;99.90
27306;DHT22;14792;50.886;6.468;2022-12-01T19:47:32;5.40;99.90
27306;DHT22;14792;50.886;6.468;2022-12-01T19:50:34;5.40;99.90
27306;DHT22;14792;50.886;6.468;2022-12-01T19:53:35;5.30;99.90
27306;DHT22;14792;50.886;6.468;2022-12-01T19:56:37;5.30;99.90
27306;DHT22;14792;50.886;6.468;2022-12-01T19:59:38;5.30;99.90
27306;DHT22;14792;50.886;6.468;2022-12-01T20:02:40;5.30;99.90
27306;DHT22;14792;50.886;6.468;2022-12-01T20:05:41;5.30;99.90
27306;DHT22;14792;50.886;6.468;2022-12-01T20:08:43;5.30;99.90
27306;DHT22;14792;50.886;6.468;2022-12-01T20:11:45;5.30;99.90
27306;DHT22;14792;50.886;6.468;2022-12-01T20:14:46;5.30;99.90
27306;DHT22;14792;50.886;6.468;2022-12-01T20:17:48;5.30;99.90
27306;DHT22;14792;50.886;6.468;2022-12-01T20:20:50;5.30;99.90
27306;DHT22;14792;50.886;6.468;2022-12-01T20:23:55;5.30;99.90
27306;DHT22;14792;50.886;6.468;2022-12-01T20:26:56;5.30;99.90
27306;DHT22;14792;50.886;6.468;2022-12-01T20:29:58;5.20;99.90
27306;DHT22;14792;50.886;6.468;2022-12-01T20:32:59;5.20;99.90
27306;DHT22;14792;50.886;6.468;2022-12-01T20:36:01;5.20;99.90
27306;DHT22;14792;50.886;6.468;2022-12-01T20:39:03;5.20;99.90
27306;DHT22;14792;50.886;6.468;2022-12-01T20:42:04;5.20;99.90
27306;DHT22;14792;50.886;6.468;2022-12-01T20:45:06;5.20;99.90
27306;DHT22;14792;50.886;6.468;2022-12-01T20:48:07;5.20;99.90